Time;durP1;ratioP1;P1;durP2;ratioP2;P2;SDS_P1;SDS_P2;PMS_P1;PMS_P2;Temp;Humidity;BMP_temperature;BMP_pressure;BME280_temperature;BME280_humidity;BME280_pressure;Samples;Min_cycle;Max_cycle;Signal;HPM_P1;HPM_P2
2022/03/28 00:02:24;;;;;;;6.53;3.30;;;10.20;75.30;;;;;;4999755;28;20042;-69
2022/03/28 00:04:51;;;;;;;6.10;3.00;;;10.20;75.30;;;;;;5003432;28;20464;-68
2022/03/28 00:07:18;;;;;;;6.22;2.88;;;10.20;75.40;;;;;;4986434;28;20073;-68
2022/03/28 00:09:45;;;;;;;5.95;3.00;;;10.10;75.40;;;;;;5002970;28;20045;-67
2022/03/28 00:12:12;;;;;;;6.20;3.47;;;10.10;75.50;;;;;;5002997;28;20037;-66
2022/03/28 00:14:39;;;;;;;7.97;3.58;;;10.10;75.50;;;;;;5002761;28;21792;-70
2022/03/28 00:17:07;;;;;;;5.53;2.97;;;10.10;75.50;;;;;;5002815;28;20038;-68
2022/03/28 00:19:34;;;;;;;7.78;3.08;;;10.10;75.50;;;;;;5003736;28;20053;-67
2022/03/28 00:22:01;;;;;;;8.52;3.20;;;10.00;75.50;;;;;;5004400;28;20048;-67
2022/03/28 00:24:28;;;;;;;7.15;3.50;;;10.00;75.50;;;;;;5004033;28;20045;-67
2022/03/28 00:26:56;;;;;;;7.03;3.17;;;10.00;75.50;;;;;;5002321;28;20053;-67
2022/03/28 00:29:23;;;;;;;8.45;3.55;;;10.00;75.70;;;;;;5003557;28;20042;-68
2022/03/28 00:31:52;;;;;;;6.60;3.17;;;10.00;75.60;;;;;;4988811;28;20046;-68
2022/03/28 00:34:21;;;;;;;10.18;3.72;;;10.00;75.60;;;;;;5004282;28;20057;-67
2022/03/28 00:36:50;;;;;;;7.28;3.55;;;10.00;75.80;;;;;;5003388;28;20070;-68
2022/03/28 00:39:19;;;;;;;7.55;2.90;;;10.00;75.80;;;;;;5001392;28;20611;-69
2022/03/28 00:41:47;;;;;;;8.60;3.88;;;9.90;76.00;;;;;;5002771;28;20041;-67
2022/03/28 00:44:14;;;;;;;7.00;3.08;;;9.90;76.00;;;;;;5001584;28;20047;-66
2022/03/28 00:46:41;;;;;;;8.15;3.50;;;9.90;76.00;;;;;;5003446;28;20089;-68
2022/03/28 00:49:09;;;;;;;6.47;3.17;;;9.90;76.00;;;;;;4999710;28;20526;-67
2022/03/28 00:51:37;;;;;;;7.70;3.38;;;9.90;76.00;;;;;;5001352;28;20054;-69
2022/03/28 00:54:05;;;;;;;7.07;3.15;;;9.80;76.20;;;;;;5003080;28;20121;-69
2022/03/28 00:56:33;;;;;;;8.63;3.25;;;9.80;76.10;;;;;;5003623;28;20141;-68
2022/03/28 00:59:00;;;;;;;7.97;3.53;;;9.70;76.20;;;;;;5000622;28;20046;-68
2022/03/28 01:01:27;;;;;;;7.03;3.10;;;9.70;76.40;;;;;;5001467;28;21248;-69
2022/03/28 01:03:54;;;;;;;6.70;3.22;;;9.70;76.50;;;;;;5002575;28;20467;-68
2022/03/28 01:06:21;;;;;;;8.38;3.30;;;9.70;76.40;;;;;;5006934;28;20050;-70
2022/03/28 01:08:50;;;;;;;8.57;3.45;;;9.70;76.50;;;;;;5001780;28;20051;-67
2022/03/28 01:11:18;;;;;;;6.47;3.30;;;9.70;76.60;;;;;;5001193;28;20038;-68
2022/03/28 01:13:46;;;;;;;8.48;3.92;;;9.60;76.60;;;;;;5000895;28;20054;-68
2022/03/28 01:16:13;;;;;;;7.53;3.08;;;9.50;76.70;;;;;;5001855;28;20105;-68
2022/03/28 01:18:47;;;;;;;7.82;3.15;;;9.50;76.60;;;;;;5001491;28;20070;-68
2022/03/28 01:21:17;;;;;;;6.97;3.40;;;9.50;76.70;;;;;;4999766;28;20046;-67
2022/03/28 01:23:44;;;;;;;7.97;3.65;;;9.40;76.90;;;;;;5001689;28;20038;-68
2022/03/28 01:26:13;;;;;;;7.15;3.78;;;9.40;77.00;;;;;;4999504;28;20046;-68
2022/03/28 01:28:40;;;;;;;11.27;3.67;;;9.40;77.20;;;;;;5001896;28;20046;-67
2022/03/28 01:31:08;;;;;;;8.20;3.80;;;9.40;77.20;;;;;;5000196;28;20219;-68
2022/03/28 01:33:36;;;;;;;6.05;2.67;;;9.40;77.20;;;;;;4999718;28;20101;-68
2022/03/28 01:36:03;;;;;;;7.20;3.17;;;9.40;77.00;;;;;;5001575;28;20053;-68
2022/03/28 01:38:32;;;;;;;6.15;3.15;;;9.30;77.00;;;;;;4991680;28;20404;-67
2022/03/28 01:40:59;;;;;;;8.95;3.17;;;9.30;76.90;;;;;;5000996;28;20042;-68
2022/03/28 01:43:26;;;;;;;7.38;3.47;;;9.30;76.90;;;;;;5000911;28;20034;-69
2022/03/28 01:45:53;;;;;;;6.45;2.97;;;9.30;77.00;;;;;;5001985;28;20042;-67
2022/03/28 01:48:20;;;;;;;6.68;3.50;;;9.30;76.70;;;;;;5002134;28;20046;-68
2022/03/28 01:50:47;;;;;;;6.65;3.33;;;9.30;76.80;;;;;;5002011;28;20054;-68
2022/03/28 01:53:14;;;;;;;9.07;3.22;;;9.20;76.70;;;;;;4998940;28;20046;-68
2022/03/28 01:55:42;;;;;;;5.57;2.83;;;9.20;76.80;;;;;;4999638;28;20046;-67
2022/03/28 01:58:09;;;;;;;6.55;2.67;;;9.20;76.80;;;;;;5001078;28;20081;-69
2022/03/28 02:00:36;;;;;;;5.72;2.65;;;9.20;76.80;;;;;;4997356;28;20061;-68
2022/03/28 02:03:03;;;;;;;5.82;3.33;;;9.20;76.90;;;;;;5000870;28;20053;-68
2022/03/28 02:05:30;;;;;;;6.18;3.22;;;9.20;77.00;;;;;;4989532;28;20050;-67
2022/03/28 02:07:59;;;;;;;6.47;2.92;;;9.20;77.10;;;;;;5001323;28;20046;-68
2022/03/28 02:10:26;;;;;;;6.53;3.03;;;9.10;77.30;;;;;;5001934;28;20047;-68
2022/03/28 02:12:54;;;;;;;6.90;3.33;;;9.10;77.30;;;;;;5001842;28;20042;-68
2022/03/28 02:15:22;;;;;;;6.90;3.20;;;9.10;77.30;;;;;;5002901;28;20050;-68
2022/03/28 02:17:49;;;;;;;6.25;2.95;;;9.10;77.20;;;;;;5001172;28;20078;-68
2022/03/28 02:20:17;;;;;;;5.68;2.88;;;9.00;77.20;;;;;;5000242;28;20042;-68
2022/03/28 02:22:45;;;;;;;6.85;3.60;;;9.00;77.20;;;;;;5003339;28;20060;-68
2022/03/28 02:25:14;;;;;;;6.53;3.15;;;9.10;77.10;;;;;;5002303;28;20045;-68
2022/03/28 02:27:41;;;;;;;8.50;3.90;;;9.00;77.00;;;;;;5001641;28;20100;-67
2022/03/28 02:30:11;;;;;;;6.90;3.40;;;9.00;77.20;;;;;;5003216;28;20038;-68
2022/03/28 02:32:39;;;;;;;8.13;3.63;;;8.90;77.30;;;;;;5000760;28;20045;-68
2022/03/28 02:35:08;;;;;;;7.53;3.10;;;8.90;77.40;;;;;;5001449;28;20030;-69
2022/03/28 02:37:36;;;;;;;5.75;3.00;;;8.90;77.30;;;;;;4999904;28;20049;-68
2022/03/28 02:40:04;;;;;;;6.85;3.00;;;8.90;77.30;;;;;;5001463;28;20057;-68
2022/03/28 02:42:31;;;;;;;7.07;3.25;;;8.80;77.40;;;;;;5002750;28;20054;-68
2022/03/28 02:44:58;;;;;;;6.50;3.08;;;8.90;77.30;;;;;;5000954;28;20046;-70
2022/03/28 02:47:26;;;;;;;6.10;3.55;;;8.90;77.20;;;;;;5003415;28;20049;-69
2022/03/28 02:49:53;;;;;;;5.93;2.85;;;8.90;77.10;;;;;;4999810;28;20042;-68
2022/03/28 02:52:21;;;;;;;8.43;3.08;;;8.80;77.10;;;;;;5001097;28;20122;-67
2022/03/28 02:54:48;;;;;;;7.10;3.08;;;8.80;77.10;;;;;;4999716;28;20130;-67
2022/03/28 02:57:15;;;;;;;6.03;2.70;;;8.70;77.10;;;;;;4999886;28;20492;-67
2022/03/28 02:59:42;;;;;;;6.53;3.50;;;8.70;77.00;;;;;;4998968;28;20045;-67
2022/03/28 03:02:09;;;;;;;5.18;2.90;;;8.70;77.10;;;;;;4998596;28;20049;-67
2022/03/28 03:04:38;;;;;;;6.68;3.03;;;8.70;77.10;;;;;;5000163;28;20030;-68
2022/03/28 03:07:05;;;;;;;9.80;3.25;;;8.60;77.10;;;;;;4999539;28;20129;-67
2022/03/28 03:09:32;;;;;;;5.55;2.42;;;8.60;77.00;;;;;;5000398;28;20042;-68
2022/03/28 03:11:59;;;;;;;7.63;3.47;;;8.60;76.90;;;;;;5000557;28;20068;-68
2022/03/28 03:14:27;;;;;;;6.20;2.83;;;8.60;76.80;;;;;;5000801;28;20038;-68
2022/03/28 03:16:54;;;;;;;6.78;3.15;;;8.60;76.80;;;;;;4998501;28;20123;-67
2022/03/28 03:19:21;;;;;;;6.57;2.85;;;8.60;76.70;;;;;;5000064;28;20127;-67
2022/03/28 03:21:50;;;;;;;6.82;2.78;;;8.60;76.70;;;;;;5000085;28;20046;-68
2022/03/28 03:24:17;;;;;;;7.28;3.35;;;8.50;76.80;;;;;;4998190;28;20054;-68
2022/03/28 03:26:44;;;;;;;7.30;3.22;;;8.50;76.90;;;;;;5000482;28;20042;-67
2022/03/28 03:29:11;;;;;;;6.32;3.17;;;8.40;76.80;;;;;;5000525;28;20047;-67
2022/03/28 03:31:39;;;;;;;6.13;3.00;;;8.40;76.80;;;;;;5002414;28;20046;-68
2022/03/28 03:34:06;;;;;;;7.60;2.70;;;8.40;76.70;;;;;;5001353;28;20093;-68
2022/03/28 03:36:34;;;;;;;5.53;2.40;;;8.40;76.70;;;;;;4999760;28;20050;-67
2022/03/28 03:39:03;;;;;;;5.53;2.58;;;8.30;76.60;;;;;;5001669;28;20086;-68
2022/03/28 03:41:30;;;;;;;6.10;2.75;;;8.30;76.60;;;;;;5001801;28;20137;-67
2022/03/28 03:43:57;;;;;;;5.55;2.70;;;8.30;76.50;;;;;;5002332;28;20462;-67
2022/03/28 03:46:24;;;;;;;5.63;2.50;;;8.30;76.50;;;;;;5005130;28;20037;-68
2022/03/28 03:48:51;;;;;;;4.75;2.65;;;8.20;76.50;;;;;;5005082;28;20046;-68
2022/03/28 03:51:18;;;;;;;5.07;1.92;;;8.20;76.70;;;;;;5004898;28;20050;-68
2022/03/28 03:53:45;;;;;;;7.43;2.90;;;8.20;76.70;;;;;;5004585;28;20073;-69
2022/03/28 03:56:13;;;;;;;5.53;2.83;;;8.20;76.80;;;;;;5004881;28;20207;-67
2022/03/28 03:58:40;;;;;;;7.07;3.25;;;8.10;77.00;;;;;;5005192;28;20046;-67
2022/03/28 04:01:09;;;;;;;6.55;3.30;;;8.10;77.10;;;;;;5001727;28;20065;-68
2022/03/28 04:03:36;;;;;;;5.57;2.78;;;8.10;77.10;;;;;;5005361;28;20051;-68
2022/03/28 04:06:04;;;;;;;5.82;3.22;;;8.10;77.00;;;;;;5005965;28;20116;-67
2022/03/28 04:08:31;;;;;;;6.25;2.67;;;8.10;76.90;;;;;;5004483;28;20050;-67
2022/03/28 04:10:58;;;;;;;7.25;3.30;;;8.10;76.90;;;;;;5004667;28;20073;-69
2022/03/28 04:13:26;;;;;;;6.78;3.33;;;8.00;76.90;;;;;;5004644;28;20599;-67
2022/03/28 04:15:53;;;;;;;9.27;3.15;;;8.00;76.90;;;;;;5005060;28;20046;-67
2022/03/28 04:18:20;;;;;;;7.60;3.42;;;8.00;77.00;;;;;;5004270;28;20054;-67
2022/03/28 04:20:47;;;;;;;5.47;2.90;;;7.90;76.90;;;;;;5003741;28;20638;-68
2022/03/28 04:23:14;;;;;;;7.10;3.33;;;7.90;76.90;;;;;;5004881;28;20141;-68
2022/03/28 04:25:41;;;;;;;6.53;2.70;;;7.90;76.90;;;;;;5002775;28;20092;-67
2022/03/28 04:28:08;;;;;;;6.80;3.53;;;7.90;76.90;;;;;;5004995;28;20038;-68
2022/03/28 04:30:37;;;;;;;7.30;3.15;;;7.80;76.90;;;;;;5003259;28;20042;-67
2022/03/28 04:33:07;;;;;;;7.78;3.17;;;7.80;76.90;;;;;;5002887;28;20499;-68
2022/03/28 04:35:34;;;;;;;8.00;3.40;;;7.80;77.00;;;;;;5003097;28;20745;-68
2022/03/28 04:38:02;;;;;;;6.28;3.10;;;7.80;77.00;;;;;;5001215;28;20049;-68
2022/03/28 04:40:30;;;;;;;7.60;3.28;;;7.80;77.00;;;;;;5002311;28;20054;-68
2022/03/28 04:42:57;;;;;;;7.18;2.85;;;7.80;77.00;;;;;;4984084;28;20896;-67
2022/03/28 04:45:23;;;;;;;7.22;3.40;;;7.70;77.00;;;;;;5001818;28;20393;-69
2022/03/28 04:47:52;;;;;;;8.70;3.50;;;7.70;77.30;;;;;;5001146;28;20073;-69
2022/03/28 04:50:19;;;;;;;6.22;3.42;;;7.80;77.40;;;;;;5000257;28;20060;-67
2022/03/28 04:52:46;;;;;;;6.65;3.42;;;7.80;77.50;;;;;;5003439;28;20555;-67
2022/03/28 04:55:13;;;;;;;7.18;3.20;;;7.80;77.40;;;;;;5001386;28;20638;-67
2022/03/28 04:57:40;;;;;;;5.88;3.28;;;7.80;77.30;;;;;;5003814;28;20065;-66
2022/03/28 05:00:09;;;;;;;6.65;2.47;;;7.80;77.60;;;;;;4983366;28;20115;-67
2022/03/28 05:02:36;;;;;;;6.90;3.33;;;7.80;77.70;;;;;;5002416;28;20052;-68
2022/03/28 05:05:06;;;;;;;6.75;3.13;;;7.80;77.90;;;;;;5003272;28;20073;-67
2022/03/28 05:07:34;;;;;;;7.93;3.42;;;7.70;78.10;;;;;;4997937;28;20052;-68
2022/03/28 05:10:01;;;;;;;8.30;3.20;;;7.70;78.00;;;;;;5001540;28;20046;-68
2022/03/28 05:12:28;;;;;;;6.65;3.30;;;7.70;78.00;;;;;;5003116;28;20054;-65
2022/03/28 05:14:56;;;;;;;7.95;3.15;;;7.70;78.00;;;;;;5003558;28;20081;-66
2022/03/28 05:17:24;;;;;;;7.70;3.40;;;7.70;78.10;;;;;;5002224;28;20128;-67
2022/03/28 05:19:51;;;;;;;6.70;3.40;;;7.70;78.20;;;;;;5004031;28;20054;-66
2022/03/28 05:22:21;;;;;;;8.38;3.35;;;7.70;78.00;;;;;;5000503;28;20038;-68
2022/03/28 05:24:48;;;;;;;9.65;3.85;;;7.70;77.90;;;;;;5001526;28;20104;-67
2022/03/28 05:27:15;;;;;;;7.15;3.50;;;7.70;77.80;;;;;;5002448;28;20050;-67
2022/03/28 05:29:43;;;;;;;7.75;3.40;;;7.60;77.90;;;;;;5002860;28;20116;-69
2022/03/28 05:32:10;;;;;;;7.63;3.92;;;7.60;78.00;;;;;;5002432;28;20146;-69
2022/03/28 05:34:38;;;;;;;6.72;3.35;;;7.60;77.90;;;;;;5004785;28;20104;-67
2022/03/28 05:37:06;;;;;;;16.40;3.97;;;7.50;78.00;;;;;;5000788;28;20042;-67
2022/03/28 05:39:35;;;;;;;8.27;3.38;;;7.60;78.00;;;;;;5002975;28;20101;-67
2022/03/28 05:42:02;;;;;;;6.85;3.10;;;7.50;77.90;;;;;;5001735;28;20037;-68
2022/03/28 05:44:30;;;;;;;6.45;3.10;;;7.50;78.00;;;;;;4993380;28;20042;-67
2022/03/28 05:46:57;;;;;;;7.00;2.85;;;7.50;78.10;;;;;;5003757;28;20037;-68
2022/03/28 05:49:24;;;;;;;6.15;3.53;;;7.60;78.00;;;;;;5000424;28;20046;-67
2022/03/28 05:51:52;;;;;;;7.70;3.67;;;7.50;78.10;;;;;;5001040;28;20100;-68
2022/03/28 05:54:20;;;;;;;7.38;3.40;;;7.60;78.10;;;;;;5001124;28;20046;-68
2022/03/28 05:56:48;;;;;;;6.68;3.15;;;7.60;78.20;;;;;;5001974;28;20130;-68
2022/03/28 05:59:16;;;;;;;6.35;3.10;;;7.60;78.30;;;;;;5002053;28;20041;-68
2022/03/28 06:01:43;;;;;;;7.60;3.15;;;7.60;78.30;;;;;;4998884;28;20125;-68
2022/03/28 06:04:10;;;;;;;6.68;3.75;;;7.60;78.30;;;;;;4998643;28;20041;-68
2022/03/28 06:06:37;;;;;;;8.77;3.67;;;7.60;78.40;;;;;;5002735;28;20050;-68
2022/03/28 06:09:05;;;;;;;8.85;3.60;;;7.60;78.50;;;;;;4999058;28;20038;-69
2022/03/28 06:11:32;;;;;;;7.25;4.18;;;7.60;78.50;;;;;;4997923;28;20054;-68
2022/03/28 06:14:01;;;;;;;9.32;3.90;;;7.70;78.60;;;;;;4997369;28;20041;-67
2022/03/28 06:16:28;;;;;;;8.60;4.05;;;7.60;78.60;;;;;;4997887;28;20041;-67
2022/03/28 06:18:55;;;;;;;7.25;3.53;;;7.60;78.70;;;;;;4998099;28;20054;-68
2022/03/28 06:21:22;;;;;;;9.10;3.47;;;7.70;78.70;;;;;;4997457;28;20045;-68
2022/03/28 06:23:50;;;;;;;7.65;4.18;;;7.70;78.70;;;;;;4991858;28;20044;-69
2022/03/28 06:26:18;;;;;;;11.38;4.60;;;7.80;78.60;;;;;;4993826;28;20053;-68
2022/03/28 06:28:46;;;;;;;8.98;3.88;;;7.90;78.50;;;;;;4993297;28;20053;-67
2022/03/28 06:31:15;;;;;;;7.43;3.90;;;7.90;78.50;;;;;;4990478;28;20228;-68
2022/03/28 06:33:42;;;;;;;8.43;4.15;;;8.00;78.70;;;;;;4993683;28;20093;-66
2022/03/28 06:36:10;;;;;;;7.60;3.80;;;8.00;78.80;;;;;;4994918;28;20033;-67
2022/03/28 06:38:37;;;;;;;8.63;4.03;;;8.10;78.70;;;;;;4994679;28;20061;-66
2022/03/28 06:41:04;;;;;;;6.97;3.65;;;8.20;78.80;;;;;;4993243;28;20058;-68
2022/03/28 06:43:31;;;;;;;8.00;3.45;;;8.30;78.80;;;;;;4994892;28;20042;-67
2022/03/28 06:45:59;;;;;;;10.43;4.13;;;8.40;78.80;;;;;;4997350;28;20042;-69
2022/03/28 06:48:28;;;;;;;7.43;3.72;;;8.40;78.80;;;;;;4992176;28;20397;-68
2022/03/28 06:50:55;;;;;;;8.98;3.80;;;8.50;78.60;;;;;;4996576;28;20060;-68
2022/03/28 06:53:22;;;;;;;9.80;4.40;;;8.60;78.60;;;;;;4996476;28;20104;-67
2022/03/28 06:55:49;;;;;;;10.05;4.75;;;8.70;78.40;;;;;;4992699;28;20088;-68
2022/03/28 06:58:17;;;;;;;10.40;4.80;;;8.80;78.30;;;;;;4996120;28;20563;-68
2022/03/28 07:00:44;;;;;;;7.95;3.75;;;8.90;78.10;;;;;;4988330;28;20736;-68
2022/03/28 07:03:11;;;;;;;8.55;4.45;;;9.00;78.00;;;;;;4994098;28;20408;-68
2022/03/28 07:05:39;;;;;;;7.43;3.97;;;9.10;77.90;;;;;;4994278;28;20049;-68
2022/03/28 07:08:08;;;;;;;8.77;3.72;;;9.10;77.80;;;;;;4994921;28;20044;-67
2022/03/28 07:10:35;;;;;;;8.82;4.18;;;9.20;77.80;;;;;;4994484;28;20065;-67
2022/03/28 07:13:02;;;;;;;8.05;3.85;;;9.20;77.70;;;;;;4995352;28;20046;-68
2022/03/28 07:15:29;;;;;;;8.75;4.28;;;9.30;77.90;;;;;;4990952;28;20125;-68
2022/03/28 07:18:02;;;;;;;10.05;4.07;;;9.20;78.10;;;;;;4989150;28;21322;-68
2022/03/28 07:20:31;;;;;;;8.32;4.25;;;9.30;78.10;;;;;;4997826;28;20054;-68
2022/03/28 07:23:01;;;;;;;8.90;4.05;;;9.30;78.10;;;;;;4994565;28;20076;-69
2022/03/28 07:25:28;;;;;;;8.90;4.07;;;9.40;77.80;;;;;;4997661;28;20488;-68
2022/03/28 07:27:56;;;;;;;9.85;4.63;;;9.40;77.90;;;;;;5001013;28;20092;-68
2022/03/28 07:30:23;;;;;;;9.77;4.30;;;9.40;78.00;;;;;;5001594;28;20060;-67
2022/03/28 07:32:51;;;;;;;7.70;4.35;;;9.50;77.90;;;;;;4998333;28;20124;-68
2022/03/28 07:35:20;;;;;;;7.45;4.38;;;9.50;78.10;;;;;;4997991;28;20126;-67
2022/03/28 07:37:48;;;;;;;11.97;4.83;;;9.60;78.20;;;;;;4997938;28;20045;-68
2022/03/28 07:40:16;;;;;;;8.93;4.53;;;9.70;78.00;;;;;;4998849;28;20058;-67
2022/03/28 07:42:44;;;;;;;8.90;3.80;;;9.70;78.20;;;;;;5005398;28;20046;-68
2022/03/28 07:45:13;;;;;;;10.63;4.72;;;9.70;78.00;;;;;;5003066;28;20041;-68
2022/03/28 07:47:40;;;;;;;10.70;5.00;;;9.80;78.20;;;;;;5004663;28;20443;-67
2022/03/28 07:50:08;;;;;;;9.50;4.57;;;10.00;78.70;;;;;;5002533;28;20050;-68
2022/03/28 07:52:35;;;;;;;8.93;4.75;;;10.10;78.50;;;;;;5001061;28;20129;-69
2022/03/28 07:55:03;;;;;;;9.57;4.53;;;10.20;78.50;;;;;;5002973;28;20042;-68
2022/03/28 07:57:32;;;;;;;9.00;4.72;;;10.40;78.10;;;;;;4995626;28;20578;-69
2022/03/28 07:59:59;;;;;;;9.23;4.75;;;10.50;78.30;;;;;;4996235;28;20034;-68
2022/03/28 08:02:26;;;;;;;8.63;4.13;;;10.60;78.10;;;;;;4993456;28;20050;-74
2022/03/28 08:04:53;;;;;;;9.18;4.75;;;10.70;78.10;;;;;;4995963;28;20172;-74
2022/03/28 08:07:20;;;;;;;9.30;4.35;;;10.80;78.00;;;;;;4996147;28;20045;-73
2022/03/28 08:09:47;;;;;;;9.23;5.32;;;11.00;77.80;;;;;;4997841;28;20657;-75
2022/03/28 08:12:15;;;;;;;8.38;4.97;;;11.10;77.50;;;;;;4999678;28;20042;-75
2022/03/28 08:14:43;;;;;;;9.60;4.90;;;11.10;77.40;;;;;;4998170;28;20049;-73
2022/03/28 08:17:10;;;;;;;9.93;4.70;;;11.30;77.20;;;;;;4999726;28;20365;-71
2022/03/28 08:19:37;;;;;;;12.07;5.32;;;11.40;77.30;;;;;;5001073;28;20496;-72
2022/03/28 08:22:04;;;;;;;10.57;4.57;;;11.50;77.10;;;;;;5000713;28;20046;-71
2022/03/28 08:24:31;;;;;;;7.82;4.43;;;11.60;76.90;;;;;;5002299;28;20117;-72
2022/03/28 08:26:58;;;;;;;9.38;5.20;;;11.70;76.80;;;;;;5000932;28;20040;-71
2022/03/28 08:29:25;;;;;;;11.85;5.40;;;11.90;76.70;;;;;;4999149;28;20407;-72
2022/03/28 08:31:54;;;;;;;10.05;4.43;;;12.10;76.40;;;;;;4996426;28;20045;-73
2022/03/28 08:34:21;;;;;;;8.85;4.63;;;12.20;76.10;;;;;;4996280;28;20104;-73
2022/03/28 08:36:48;;;;;;;7.57;4.10;;;12.30;75.90;;;;;;4995860;28;20126;-73
2022/03/28 08:39:15;;;;;;;9.60;4.55;;;12.40;76.00;;;;;;4998349;28;20058;-74
2022/03/28 08:41:43;;;;;;;10.13;4.60;;;12.60;75.60;;;;;;4996528;28;20065;-78
2022/03/28 08:44:10;;;;;;;9.63;4.32;;;12.60;75.30;;;;;;4998046;28;20046;-72
2022/03/28 08:46:41;;;;;;;10.07;4.47;;;12.70;74.90;;;;;;4995061;28;20048;-76
2022/03/28 08:49:10;;;;;;;9.85;4.43;;;12.80;74.80;;;;;;4997284;28;20069;-75
2022/03/28 08:51:38;;;;;;;9.52;4.38;;;12.90;74.30;;;;;;4995449;28;20417;-75
2022/03/28 08:54:04;;;;;;;10.18;4.22;;;13.10;74.40;;;;;;4995203;28;20397;-76
2022/03/28 08:56:31;;;;;;;9.07;4.88;;;13.10;74.10;;;;;;4997900;28;20065;-73
2022/03/28 08:58:58;;;;;;;10.35;4.78;;;13.20;73.70;;;;;;4995689;28;20512;-75
2022/03/28 09:01:26;;;;;;;8.52;4.43;;;13.30;74.00;;;;;;4993166;28;20060;-74
2022/03/28 09:03:53;;;;;;;9.95;4.65;;;13.40;73.60;;;;;;4997515;28;20074;-75
2022/03/28 09:06:32;;;;;;;12.00;5.00;;;13.40;73.20;;;;;;4997580;28;20049;-74
2022/03/28 09:09:17;;;;;;;7.78;3.95;;;13.50;72.80;;;;;;4997683;28;20044;-74
2022/03/28 09:11:45;;;;;;;8.48;4.55;;;13.60;73.60;;;;;;4995337;28;20034;-74
2022/03/28 09:14:14;;;;;;;11.77;5.45;;;13.70;73.60;;;;;;4996136;28;20056;-75
2022/03/28 09:16:41;;;;;;;10.80;4.55;;;13.80;73.20;;;;;;4997577;28;20049;-74
2022/03/28 09:19:12;;;;;;;8.18;4.25;;;13.80;73.30;;;;;;4995792;28;20065;-75
2022/03/28 09:21:50;;;;;;;9.52;5.05;;;14.00;73.40;;;;;;4996233;28;20047;-73
2022/03/28 09:24:17;;;;;;;11.52;5.20;;;14.10;72.70;;;;;;4998266;28;20052;-75
2022/03/28 09:26:44;;;;;;;9.93;4.55;;;14.20;72.50;;;;;;4995507;28;20048;-74
2022/03/28 09:29:11;;;;;;;9.55;4.85;;;14.20;72.00;;;;;;4997830;28;20049;-73
2022/03/28 09:31:40;;;;;;;12.23;5.13;;;14.30;72.20;;;;;;4993538;28;20058;-76
2022/03/28 09:34:10;;;;;;;10.23;4.57;;;14.40;71.80;;;;;;4995512;28;20056;-73
2022/03/28 09:36:49;;;;;;;10.60;5.07;;;14.50;71.30;;;;;;4997408;28;20065;-72
2022/03/28 09:39:19;;;;;;;10.90;5.30;;;14.60;71.50;;;;;;4997342;28;20613;-74
2022/03/28 09:41:59;;;;;;;13.70;5.57;;;14.60;71.40;;;;;;5000924;28;20046;-74
2022/03/28 09:44:37;;;;;;;10.70;5.80;;;14.80;71.00;;;;;;4996957;28;20495;-74
2022/03/28 09:47:07;;;;;;;11.02;5.15;;;14.80;71.10;;;;;;5000741;28;20060;-74
2022/03/28 09:49:35;;;;;;;10.88;5.70;;;14.90;71.00;;;;;;5001264;28;20488;-72
2022/03/28 09:52:09;;;;;;;14.15;7.13;;;15.00;70.40;;;;;;4992810;28;20050;-73
2022/03/28 09:54:53;;;;;;;12.10;7.35;;;15.10;69.90;;;;;;4995990;28;20076;-74
2022/03/28 09:57:23;;;;;;;14.60;6.80;;;15.20;70.40;;;;;;4992437;28;20049;-74
2022/03/28 09:59:51;;;;;;;16.25;8.85;;;15.20;70.00;;;;;;4993334;28;20050;-71
2022/03/28 10:02:21;;;;;;;17.58;9.88;;;15.30;70.00;;;;;;4991833;28;20664;-73
2022/03/28 10:04:50;;;;;;;15.05;8.50;;;15.40;70.10;;;;;;4995694;28;20716;-75
2022/03/28 10:07:19;;;;;;;18.38;8.52;;;15.40;69.90;;;;;;4994947;28;20041;-74
2022/03/28 10:09:47;;;;;;;14.95;8.15;;;15.50;69.30;;;;;;4984395;28;20049;-75
2022/03/28 10:12:15;;;;;;;15.18;8.00;;;15.50;70.00;;;;;;4995739;28;20534;-75
2022/03/28 10:14:42;;;;;;;16.30;8.50;;;15.60;69.50;;;;;;4993568;28;20042;-75
2022/03/28 10:17:09;;;;;;;15.30;7.70;;;15.60;69.20;;;;;;4994556;28;20117;-75
2022/03/28 10:19:37;;;;;;;12.63;6.32;;;15.70;69.70;;;;;;4998713;28;20117;-74
2022/03/28 10:22:09;;;;;;;13.95;7.18;;;15.70;69.70;;;;;;4997037;28;20042;-74
2022/03/28 10:24:38;;;;;;;14.63;6.47;;;15.80;69.50;;;;;;4995330;28;20077;-75
2022/03/28 10:27:06;;;;;;;12.68;6.68;;;15.90;69.00;;;;;;4976612;28;20050;-75
2022/03/28 10:29:38;;;;;;;13.32;6.25;;;15.90;68.10;;;;;;4991183;28;20119;-76
2022/03/28 10:32:09;;;;;;;13.68;5.50;;;16.00;67.70;;;;;;5002030;28;20503;-75
2022/03/28 10:34:45;;;;;;;9.40;5.10;;;16.10;67.80;;;;;;5006547;28;20057;-74
2022/03/28 10:37:32;;;;;;;8.40;4.72;;;16.10;67.30;;;;;;4999330;28;20046;-75
2022/03/28 10:40:24;;;;;;;11.32;6.03;;;16.10;67.70;;;;;;4999074;28;20057;-73
2022/03/28 10:43:02;;;;;;;12.02;5.78;;;16.20;67.30;;;;;;4996890;28;20046;-74
2022/03/28 10:45:34;;;;;;;12.45;5.05;;;16.30;66.00;;;;;;4999231;28;20069;-74
2022/03/28 10:48:01;;;;;;;9.48;4.63;;;16.30;66.50;;;;;;4998063;28;20042;-75
2022/03/28 10:50:31;;;;;;;7.35;3.55;;;16.40;65.50;;;;;;4995167;28;20050;-76
2022/03/28 10:53:12;;;;;;;7.15;3.80;;;16.50;65.10;;;;;;4997864;28;20038;-73
2022/03/28 10:55:46;;;;;;;9.48;5.05;;;16.50;64.40;;;;;;4997891;28;20111;-76
2022/03/28 10:58:23;;;;;;;9.50;4.47;;;16.60;63.60;;;;;;4998768;28;20498;-74
2022/03/28 11:01:26;;;;;;;10.88;4.53;;;16.60;63.30;;;;;;4997488;28;20135;-74
2022/03/28 11:03:55;;;;;;;7.38;4.22;;;16.70;63.00;;;;;;4998714;28;20057;-77
2022/03/28 11:06:59;;;;;;;9.50;5.05;;;16.80;62.60;;;;;;5000605;28;20149;-76
2022/03/28 11:09:47;;;;;;;7.78;4.20;;;16.90;61.10;;;;;;4997769;28;20050;-77
2022/03/28 11:12:17;;;;;;;10.43;3.88;;;16.90;61.60;;;;;;4999050;28;20034;-75
2022/03/28 11:14:54;;;;;;;8.63;3.60;;;16.90;59.90;;;;;;4999267;28;20052;-76
2022/03/28 11:17:23;;;;;;;8.63;4.28;;;17.00;60.60;;;;;;4998004;28;20053;-74
2022/03/28 11:20:02;;;;;;;11.10;4.63;;;17.00;60.50;;;;;;4997201;28;20109;-75
2022/03/28 11:22:47;;;;;;;10.68;4.80;;;17.00;60.50;;;;;;4997723;28;20050;-75
2022/03/28 11:25:31;;;;;;;8.57;3.88;;;17.00;60.50;;;;;;4996373;28;20120;-75
2022/03/28 11:28:09;;;;;;;8.43;4.03;;;17.00;60.20;;;;;;5001815;28;20061;-77
2022/03/28 11:30:39;;;;;;;7.82;3.90;;;17.10;60.20;;;;;;5003088;28;20050;-76
2022/03/28 11:33:10;;;;;;;;;;;17.10;59.80;;;;;;5004809;28;20054;-74
2022/03/28 11:35:38;;;;;;;8.40;3.53;;;17.10;59.50;;;;;;5003583;28;19929;-73
2022/03/28 11:38:06;;;;;;;6.88;3.33;;;17.10;60.00;;;;;;5003118;28;20399;-75
2022/03/28 11:40:41;;;;;;;7.80;3.72;;;17.10;59.80;;;;;;5001000;28;20053;-74
2022/03/28 11:43:10;;;;;;;7.72;3.47;;;17.10;59.50;;;;;;5004674;28;20062;-76
2022/03/28 11:45:45;;;;;;;9.40;3.85;;;17.10;59.50;;;;;;5001220;28;20427;-76
2022/03/28 11:48:12;;;;;;;6.25;3.38;;;17.10;59.70;;;;;;5003186;28;20041;-75
2022/03/28 11:50:39;;;;;;;8.68;3.75;;;17.10;59.20;;;;;;5003200;28;20050;-76
2022/03/28 11:53:13;;;;;;;10.73;3.78;;;17.10;59.20;;;;;;5003996;28;20041;-75
2022/03/28 11:55:48;;;;;;;7.68;3.42;;;17.10;58.20;;;;;;5004953;28;20048;-76
2022/03/28 11:58:16;;;;;;;7.85;3.15;;;17.10;58.70;;;;;;5005244;28;20050;-76
2022/03/28 12:00:46;;;;;;;8.75;3.70;;;17.10;58.60;;;;;;5000720;28;20054;-76
2022/03/28 12:03:14;;;;;;;9.00;3.50;;;17.10;58.20;;;;;;5000737;28;20042;-76
2022/03/28 12:05:43;;;;;;;7.43;3.35;;;17.20;57.80;;;;;;5001298;28;20065;-77
2022/03/28 12:08:13;;;;;;;8.55;3.65;;;17.20;57.90;;;;;;5002391;28;20137;-77
2022/03/28 12:10:42;;;;;;;7.20;3.38;;;17.10;58.10;;;;;;5004331;28;20042;-76
2022/03/28 12:13:10;;;;;;;8.73;3.20;;;17.10;57.70;;;;;;5002480;28;20045;-77
2022/03/28 12:15:43;;;;;;;7.15;2.95;;;17.10;55.60;;;;;;5002477;28;20054;-75
2022/03/28 12:18:11;;;;;;;7.60;2.88;;;17.10;56.70;;;;;;5002334;28;20176;-75
2022/03/28 12:20:40;;;;;;;9.20;3.35;;;17.10;56.00;;;;;;5002065;28;20042;-75
2022/03/28 12:23:08;;;;;;;8.32;3.33;;;17.10;55.80;;;;;;5002925;28;20057;-78
2022/03/28 12:25:38;;;;;;;8.85;3.47;;;17.10;54.90;;;;;;5003363;28;20038;-75
2022/03/28 12:28:08;;;;;;;7.57;3.28;;;17.20;54.80;;;;;;5000890;28;20127;-75
2022/03/28 12:30:39;;;;;;;7.75;2.90;;;17.10;53.70;;;;;;5000859;28;20480;-75
2022/03/28 12:33:12;;;;;;;6.35;2.75;;;17.10;53.90;;;;;;5005175;28;20465;-77
2022/03/28 12:35:42;;;;;;;10.45;2.90;;;17.10;53.70;;;;;;5005999;28;20068;-76
2022/03/28 12:38:11;;;;;;;10.83;3.60;;;17.10;53.50;;;;;;5001682;28;20129;-77
2022/03/28 12:40:40;;;;;;;7.78;3.28;;;17.10;53.10;;;;;;5003020;28;20490;-76
2022/03/28 12:43:07;;;;;;;13.80;3.05;;;17.10;52.70;;;;;;5001160;28;20054;-76
2022/03/28 12:45:34;;;;;;;8.30;2.80;;;17.10;53.00;;;;;;5002755;28;20073;-75
2022/03/28 12:48:06;;;;;;;8.40;3.58;;;17.10;52.80;;;;;;4996810;28;20042;-75
2022/03/28 12:50:34;;;;;;;6.88;2.97;;;17.10;53.70;;;;;;4998845;28;20485;-76
2022/03/28 12:53:17;;;;;;;8.48;3.28;;;17.10;52.20;;;;;;5001092;28;20050;-76
2022/03/28 12:55:46;;;;;;;7.20;3.08;;;17.20;52.10;;;;;;5001187;28;20066;-75
2022/03/28 12:58:14;;;;;;;7.20;2.95;;;17.20;51.50;;;;;;4998728;28;20038;-77
2022/03/28 13:00:43;;;;;;;8.30;2.65;;;17.20;50.10;;;;;;4997913;28;20042;-77